createdAt,value
2019-04-20T08:09:57.352Z,4.70
2019-04-20T08:12:55.721Z,3.43
2019-04-20T08:15:32.207Z,3.37
2019-04-20T08:17:56.473Z,3.30
2019-04-20T08:20:21.760Z,3.70
2019-04-20T08:22:53.170Z,4.23
2019-04-20T08:25:16.778Z,3.77
2019-04-20T08:27:52.944Z,4.07
2019-04-20T08:30:54.048Z,4.23
2019-04-20T08:33:28.466Z,4.17
2019-04-20T08:36:01.203Z,3.83
2019-04-20T08:40:54.911Z,3.60
2019-04-20T08:45:58.761Z,3.27
2019-04-20T08:48:31.379Z,3.13
2019-04-20T08:51:01.743Z,2.80
2019-04-20T08:53:33.062Z,2.90
2019-04-20T08:55:54.253Z,3.20
2019-04-20T08:58:11.416Z,3.50
2019-04-20T09:00:48.670Z,3.40
2019-04-20T09:03:19.399Z,2.83
2019-04-20T09:05:52.486Z,2.90
2019-04-20T09:08:18.820Z,3.27
2019-04-20T09:11:25.023Z,2.83
2019-04-20T09:13:43.414Z,3.57
2019-04-20T09:16:09.216Z,2.60
2019-04-20T09:18:49.409Z,2.60
2019-04-20T09:21:24.291Z,2.80
2019-04-20T09:24:10.749Z,2.83
2019-04-20T09:26:32.786Z,2.60
2019-04-20T09:29:04.100Z,2.60
2019-04-20T09:31:50.213Z,2.70
2019-04-20T09:34:46.568Z,2.53
2019-04-20T09:37:40.026Z,2.67
2019-04-20T09:40:00.923Z,2.60
2019-04-20T09:42:32.668Z,2.27
2019-04-20T09:45:04.465Z,2.50
2019-04-20T09:47:36.990Z,2.33
2019-04-20T09:50:21.415Z,2.93
2019-04-20T09:52:51.391Z,3.57
2019-04-20T09:55:18.412Z,3.17
2019-04-20T09:57:54.116Z,2.70
2019-04-20T10:00:25.629Z,2.80
2019-04-20T10:02:39.289Z,2.80
2019-04-20T10:05:07.434Z,2.87
2019-04-20T10:07:37.733Z,2.20
2019-04-20T10:10:17.841Z,2.40
2019-04-20T10:12:37.959Z,2.57
2019-04-20T10:15:13.846Z,2.27
2019-04-20T10:17:38.556Z,2.70
2019-04-20T10:20:12.772Z,2.70
2019-04-20T10:22:38.401Z,2.73
2019-04-20T10:25:08.413Z,2.80
2019-04-20T10:27:39.126Z,2.53
2019-04-20T10:30:08.257Z,2.50
2019-04-20T10:32:40.249Z,2.73
2019-04-20T10:35:08.985Z,2.60
2019-04-20T10:37:42.266Z,2.80
2019-04-20T10:40:11.575Z,2.67
2019-04-20T10:42:41.844Z,3.03
2019-04-20T10:45:10.944Z,2.70
2019-04-20T10:47:41.013Z,3.00
2019-04-20T10:50:11.203Z,2.90
2019-04-20T10:52:41.608Z,2.90
2019-04-20T10:55:10.593Z,3.60
2019-04-20T10:57:39.727Z,2.60
2019-04-20T11:00:09.951Z,3.10
2019-04-20T11:02:39.588Z,3.33
2019-04-20T11:05:10.680Z,2.90
2019-04-20T11:07:40.810Z,3.30
2019-04-20T11:10:16.716Z,3.30
2019-04-20T11:12:50.510Z,3.13
2019-04-20T11:15:20.809Z,3.60
2019-04-20T11:17:51.257Z,3.63
2019-04-20T11:20:21.390Z,3.40
2019-04-20T11:22:50.568Z,3.57
2019-04-20T11:25:19.922Z,3.47
2019-04-20T11:27:50.033Z,3.40
2019-04-20T11:30:20.282Z,3.00
2019-04-20T11:32:49.188Z,3.07
2019-04-20T11:35:25.602Z,2.40
2019-04-20T11:37:49.163Z,2.67
2019-04-20T11:40:19.134Z,2.97
2019-04-20T11:42:48.280Z,2.37
2019-04-20T11:45:18.352Z,2.33
2019-04-20T11:47:57.704Z,2.60
2019-04-20T11:50:27.509Z,2.80
2019-04-20T11:52:57.262Z,2.80
2019-04-20T11:55:26.656Z,2.97
2019-04-20T11:57:56.228Z,2.60
2019-04-20T12:00:43.222Z,3.83
2019-04-20T12:03:25.070Z,2.63
2019-04-20T12:05:53.151Z,2.83
2019-04-20T12:08:18.836Z,2.90
2019-04-20T12:10:54.077Z,2.60
2019-04-20T12:13:20.449Z,2.10
2019-04-20T12:15:49.700Z,2.50
2019-04-20T12:18:19.794Z,2.30
2019-04-20T12:20:48.770Z,2.60
2019-04-20T12:23:18.020Z,3.00
2019-04-20T12:25:48.037Z,3.27
2019-04-20T12:28:17.950Z,2.20
2019-04-20T12:30:51.570Z,2.43
2019-04-20T12:33:20.508Z,2.57
2019-04-20T12:35:50.117Z,2.43
2019-04-20T12:38:19.357Z,2.63
2019-04-20T12:40:48.424Z,3.37
2019-04-20T12:43:17.540Z,2.70
2019-04-20T12:45:47.703Z,2.87
2019-04-20T12:48:17.602Z,2.70
2019-04-20T12:50:47.796Z,3.00
2019-04-20T12:53:17.097Z,2.40
2019-04-20T12:55:46.561Z,2.53
2019-04-20T12:58:16.629Z,2.80
2019-04-20T13:00:49.302Z,2.50
2019-04-20T13:03:19.061Z,2.40
2019-04-20T13:05:48.275Z,2.67
2019-04-20T13:08:21.815Z,2.67
2019-04-20T13:10:56.211Z,2.90
2019-04-20T13:13:54.462Z,2.93
2019-04-20T13:16:34.383Z,2.50
2019-04-20T13:19:03.831Z,2.53
2019-04-20T13:21:32.697Z,2.37
2019-04-20T13:24:02.894Z,2.90
2019-04-20T13:26:33.255Z,2.43
2019-04-20T13:29:02.393Z,2.80
2019-04-20T13:31:31.682Z,2.83
2019-04-20T13:34:01.529Z,2.90
2019-04-20T13:36:30.536Z,2.93
2019-04-20T13:38:59.723Z,2.90
2019-04-20T13:41:29.795Z,3.30
2019-04-20T13:44:01.297Z,3.03
2019-04-20T13:46:29.365Z,3.30
2019-04-20T13:48:58.348Z,3.07
2019-04-20T13:51:28.603Z,2.93
2019-04-20T13:53:57.841Z,2.90
2019-04-20T13:56:28.423Z,3.20
2019-04-20T13:59:21.986Z,3.50
2019-04-20T14:02:04.894Z,3.53
2019-04-20T14:04:36.947Z,3.53
2019-04-20T14:07:05.865Z,3.20
2019-04-20T14:09:35.384Z,3.40
2019-04-20T14:12:14.132Z,3.17
2019-04-20T14:14:35.039Z,3.47
2019-04-20T14:17:05.280Z,3.27
2019-04-20T14:19:34.814Z,4.10
2019-04-20T14:22:03.983Z,3.00
2019-04-20T14:24:33.193Z,3.20
2019-04-20T14:27:03.312Z,4.27
2019-04-20T14:29:32.737Z,3.70
2019-04-20T14:32:03.663Z,3.23
2019-04-20T14:34:33.109Z,4.20
2019-04-20T14:37:02.550Z,3.50
2019-04-20T14:39:32.299Z,3.00
2019-04-20T14:42:02.412Z,3.63
2019-04-20T14:44:32.062Z,3.50
2019-04-20T14:47:01.025Z,3.53
2019-04-20T14:49:30.520Z,3.93
2019-04-20T14:52:01.139Z,3.40
2019-04-20T14:54:30.104Z,3.27
2019-04-20T14:56:59.257Z,3.57
2019-04-20T14:59:31.881Z,3.30
2019-04-20T15:02:10.490Z,3.60
2019-04-20T15:04:41.493Z,4.03
2019-04-20T15:07:10.878Z,3.83
2019-04-20T15:09:40.634Z,3.60
2019-04-20T15:12:10.917Z,3.57
2019-04-20T15:14:40.845Z,3.70
2019-04-20T15:17:12.074Z,3.60
2019-04-20T15:19:57.239Z,3.60
2019-04-20T15:22:36.308Z,3.27
2019-04-20T15:25:11.794Z,3.43
2019-04-20T15:27:44.005Z,3.20
2019-04-20T15:30:14.208Z,3.20
2019-04-20T15:32:43.247Z,4.00
2019-04-20T15:35:13.162Z,4.27
2019-04-20T15:37:44.934Z,3.73
2019-04-20T15:40:15.092Z,3.97
2019-04-20T15:42:57.778Z,3.93
2019-04-20T15:45:15.693Z,4.70
2019-04-20T15:47:45.879Z,3.90
2019-04-20T15:50:16.007Z,4.30
2019-04-20T15:52:52.225Z,3.47
2019-04-20T15:55:22.557Z,4.03
2019-04-20T15:57:48.146Z,3.30
2019-04-20T16:00:18.436Z,4.20
2019-04-20T16:02:54.478Z,3.77
2019-04-20T16:05:35.452Z,4.30
2019-04-20T16:08:39.165Z,4.63
2019-04-20T16:11:09.163Z,4.27
2019-04-20T16:13:43.660Z,5.40
